Time;durP1;ratioP1;P1;durP2;ratioP2;P2;SDS_P1;SDS_P2;PMS_P1;PMS_P2;Temp;Humidity;BMP_temperature;BMP_pressure;BME280_temperature;BME280_humidity;BME280_pressure;Samples;Min_cycle;Max_cycle;Signal;HPM_P1;HPM_P2
2022/04/17 00:00:05;;;;;;;323.87;95.30;;;;;;;;;;5077002;28;20441;-71
2022/04/17 00:02:33;;;;;;;349.63;94.73;;;;;;;;;;5085120;28;20458;-70
2022/04/17 00:05:01;;;;;;;292.40;92.30;;;;;;;;;;5094382;28;20443;-71
2022/04/17 00:07:31;;;;;;;330.93;94.50;;;;;;;;;;5094707;28;20467;-70
2022/04/17 00:10:02;;;;;;;323.33;90.50;;;;;;;;;;5077367;28;20790;-71
2022/04/17 00:12:34;;;;;;;309.93;92.20;;;;;;;;;;5074600;28;20484;-70
2022/04/17 00:15:07;;;;;;;310.07;91.90;;;;;;;;;;5073685;28;20448;-72
2022/04/17 00:17:47;;;;;;;340.00;96.40;;;;;;;;;;5074717;28;20565;-70
2022/04/17 00:20:27;;;;;;;338.87;90.17;;;;;;;;;;5074169;28;20502;-69
2022/04/17 00:22:57;;;;;;;324.67;94.13;;;;;;;;;;5074912;28;20460;-70
2022/04/17 00:25:31;;;;;;;321.90;94.93;;;;;;;;;;5073075;28;20802;-70
2022/04/17 00:31:01;;;;;;;;;;;;;;;;;;;;;
2022/04/17 00:33:31;;;;;;;263.07;82.50;;;;;;;;;;5070569;28;20490;-71
2022/04/17 00:36:02;;;;;;;249.97;80.73;;;;;;;;;;5074809;28;20860;-72
2022/04/17 00:38:39;;;;;;;264.93;83.10;;;;;;;;;;5073861;28;20463;-71
2022/04/17 00:41:10;;;;;;;281.57;86.27;;;;;;;;;;5078222;28;20456;-72
2022/04/17 00:43:48;;;;;;;281.17;86.50;;;;;;;;;;5078046;28;20445;-72
2022/04/17 00:46:18;;;;;;;297.20;89.83;;;;;;;;;;5079005;28;20448;-72
2022/04/17 00:48:48;;;;;;;284.27;82.60;;;;;;;;;;5078391;28;20747;-72
2022/04/17 00:51:19;;;;;;;286.60;86.67;;;;;;;;;;5078273;28;20454;-72
2022/04/17 00:53:49;;;;;;;306.47;91.30;;;;;;;;;;5078538;28;20495;-72
2022/04/17 00:56:19;;;;;;;306.70;90.87;;;;;;;;;;5099220;28;20989;-72
2022/04/17 00:58:53;;;;;;;328.00;90.43;;;;;;;;;;5097970;28;20464;-72
2022/04/17 01:04:03;;;;;;;334.80;90.57;;;;;;;;;;5088332;28;20447;-72
2022/04/17 01:06:34;;;;;;;300.87;85.43;;;;;;;;;;5097462;28;20560;-71
2022/04/17 01:09:06;;;;;;;335.00;90.00;;;;;;;;;;5097817;28;20456;-71
2022/04/17 01:11:48;;;;;;;337.50;90.17;;;;;;;;;;5078140;28;20457;-70
2022/04/17 01:14:22;;;;;;;325.77;88.90;;;;;;;;;;5058223;28;20926;-71
2022/04/17 01:16:51;;;;;;;321.87;90.50;;;;;;;;;;5078112;28;20483;-71
2022/04/17 01:19:23;;;;;;;326.17;89.97;;;;;;;;;;5096194;28;20859;-71
2022/04/17 01:21:56;;;;;;;314.03;83.70;;;;;;;;;;5096799;28;20838;-72
2022/04/17 01:27:10;;;;;;;306.50;83.70;;;;;;;;;;5097631;28;20430;-70
2022/04/17 01:29:40;;;;;;;329.87;89.17;;;;;;;;;;5097392;28;20455;-71
2022/04/17 01:32:15;;;;;;;304.60;89.50;;;;;;;;;;5097650;28;21012;-71
2022/04/17 01:34:51;;;;;;;303.93;86.63;;;;;;;;;;5097281;28;20560;-72
2022/04/17 01:37:25;;;;;;;305.17;87.87;;;;;;;;;;5097093;28;20469;-71
2022/04/17 01:39:58;;;;;;;330.03;87.47;;;;;;;;;;5097848;28;20467;-71
2022/04/17 01:42:31;;;;;;;318.60;84.57;;;;;;;;;;5094204;28;20863;-72
2022/04/17 01:47:49;;;;;;;327.23;84.87;;;;;;;;;;5076198;28;20522;-73
2022/04/17 01:50:17;;;;;;;331.93;87.07;;;;;;;;;;5079196;28;20471;-72
2022/04/17 01:52:54;;;;;;;320.83;82.50;;;;;;;;;;5097791;28;20447;-71
2022/04/17 01:58:21;;;;;;;294.50;84.07;;;;;;;;;;5071292;28;20442;-71
2022/04/17 02:00:55;;;;;;;274.70;84.20;;;;;;;;;;5078266;28;20509;-71
2022/04/17 02:03:24;;;;;;;276.97;81.73;;;;;;;;;;5078282;28;20456;-72
2022/04/17 02:05:55;;;;;;;292.07;84.40;;;;;;;;;;5077476;28;20513;-71
2022/04/17 02:08:31;;;;;;;282.40;82.80;;;;;;;;;;5077582;28;20452;-71
2022/04/17 02:11:11;;;;;;;315.40;87.90;;;;;;;;;;5077099;28;20478;-72
2022/04/17 02:13:45;;;;;;;322.23;91.10;;;;;;;;;;5077404;28;20496;-71
2022/04/17 02:16:17;;;;;;;283.43;83.33;;;;;;;;;;5076789;28;20452;-71
2022/04/17 02:18:46;;;;;;;310.07;89.47;;;;;;;;;;5075643;28;20861;-71
2022/04/17 02:21:31;;;;;;;302.27;95.07;;;;;;;;;;5076793;28;20540;-72
2022/04/17 02:24:08;;;;;;;285.23;87.47;;;;;;;;;;5076080;28;20456;-72
2022/04/17 02:26:36;;;;;;;296.73;86.73;;;;;;;;;;5076239;28;20535;-70
2022/04/17 02:29:06;;;;;;;308.00;85.00;;;;;;;;;;5076875;28;20887;-71
2022/04/17 02:31:39;;;;;;;289.53;86.10;;;;;;;;;;5077223;28;20535;-70
2022/04/17 02:34:10;;;;;;;302.27;83.33;;;;;;;;;;5076554;28;20947;-71
2022/04/17 02:36:37;;;;;;;282.00;83.27;;;;;;;;;;5076780;28;20448;-72
2022/04/17 02:39:14;;;;;;;334.53;85.50;;;;;;;;;;5076669;28;20555;-71
2022/04/17 02:41:42;;;;;;;303.87;85.07;;;;;;;;;;5075758;28;20510;-70
2022/04/17 02:44:12;;;;;;;255.10;72.20;;;;;;;;;;5076287;28;20935;-71
2022/04/17 02:49:26;;;;;;;296.00;89.73;;;;;;;;;;5076333;28;20872;-70
2022/04/17 02:51:53;;;;;;;294.20;80.80;;;;;;;;;;5075974;28;20462;-71
2022/04/17 02:54:23;;;;;;;280.80;77.37;;;;;;;;;;5075109;28;20495;-71
2022/04/17 02:56:50;;;;;;;270.03;77.20;;;;;;;;;;5074008;28;20449;-71
2022/04/17 02:59:18;;;;;;;285.53;78.87;;;;;;;;;;5075220;28;20869;-71
2022/04/17 03:07:19;;;;;;;272.73;76.10;;;;;;;;;;5076045;28;20432;-71
2022/04/17 03:09:48;;;;;;;296.73;80.70;;;;;;;;;;5075526;28;20569;-71
2022/04/17 03:12:19;;;;;;;320.37;82.53;;;;;;;;;;5076138;28;20519;-71
2022/04/17 03:14:47;;;;;;;298.03;78.47;;;;;;;;;;5075060;28;20488;-71
2022/04/17 03:17:15;;;;;;;319.33;80.67;;;;;;;;;;5075840;28;20467;-71
2022/04/17 03:19:43;;;;;;;275.10;75.07;;;;;;;;;;5076039;28;20490;-71
2022/04/17 03:22:15;;;;;;;316.83;79.90;;;;;;;;;;5084817;28;20544;-71
2022/04/17 03:24:42;;;;;;;291.37;77.67;;;;;;;;;;5097548;28;20529;-71
2022/04/17 03:27:11;;;;;;;303.00;80.70;;;;;;;;;;5095717;28;20456;-71
2022/04/17 03:29:39;;;;;;;268.63;73.43;;;;;;;;;;5096662;28;20443;-70
2022/04/17 03:32:07;;;;;;;296.57;75.83;;;;;;;;;;5096642;28;20464;-71
2022/04/17 03:34:35;;;;;;;287.20;74.53;;;;;;;;;;5095973;28;20483;-71
2022/04/17 03:37:03;;;;;;;264.23;70.37;;;;;;;;;;5096607;28;20443;-71
2022/04/17 03:39:31;;;;;;;286.93;75.50;;;;;;;;;;5097404;28;20853;-71
2022/04/17 03:41:58;;;;;;;255.07;72.00;;;;;;;;;;5096735;28;20566;-71
2022/04/17 03:44:28;;;;;;;283.33;75.73;;;;;;;;;;5090018;28;20471;-71
2022/04/17 03:46:55;;;;;;;278.53;73.87;;;;;;;;;;5076765;28;20457;-71
2022/04/17 03:49:24;;;;;;;295.20;76.40;;;;;;;;;;5076290;28;20536;-71
2022/04/17 03:51:51;;;;;;;282.63;75.43;;;;;;;;;;5077174;28;20452;-71
2022/04/17 03:54:22;;;;;;;306.60;79.40;;;;;;;;;;5076947;28;20518;-71
2022/04/17 03:56:50;;;;;;;291.17;79.13;;;;;;;;;;5077036;28;20468;-71
2022/04/17 03:59:17;;;;;;;270.93;73.57;;;;;;;;;;5077003;28;20452;-71
2022/04/17 04:01:47;;;;;;;292.60;76.47;;;;;;;;;;5076295;28;20563;-71
2022/04/17 04:04:16;;;;;;;309.27;79.20;;;;;;;;;;5076096;28;20535;-71
2022/04/17 04:06:43;;;;;;;298.03;78.37;;;;;;;;;;5077105;28;20471;-71
2022/04/17 04:09:11;;;;;;;292.03;75.90;;;;;;;;;;5086854;28;20448;-72
2022/04/17 04:11:39;;;;;;;307.90;79.93;;;;;;;;;;5076281;28;20452;-71
2022/04/17 04:14:10;;;;;;;302.07;78.33;;;;;;;;;;5073305;28;20904;-72
2022/04/17 04:16:39;;;;;;;314.00;79.97;;;;;;;;;;5074296;28;20480;-72
2022/04/17 04:19:16;;;;;;;317.10;78.17;;;;;;;;;;5074223;28;20460;-71
2022/04/17 04:21:53;;;;;;;309.27;74.83;;;;;;;;;;5094632;28;20529;-71
2022/04/17 04:24:23;;;;;;;299.80;75.67;;;;;;;;;;5094028;28;20673;-71
2022/04/17 04:28:33;;;;;;;297.10;76.43;;;;;;;;;;5094697;28;20593;-71
2022/04/17 04:29:38;;;;;;;297.00;74.10;;;;;;;;;;5094222;28;20458;-71
2022/04/17 04:32:07;;;;;;;299.77;74.73;;;;;;;;;;5093161;28;21029;-71
2022/04/17 04:34:36;;;;;;;285.70;73.87;;;;;;;;;;5094233;28;20753;-71
2022/04/17 04:37:04;;;;;;;320.97;79.67;;;;;;;;;;5077372;28;20459;-70
2022/04/17 04:39:32;;;;;;;305.50;73.97;;;;;;;;;;5075044;28;20468;-70
2022/04/17 04:42:05;;;;;;;317.97;78.50;;;;;;;;;;5090972;28;20825;-71
2022/04/17 04:44:36;;;;;;;329.60;82.37;;;;;;;;;;5094570;28;20463;-71
2022/04/17 04:47:07;;;;;;;318.40;79.10;;;;;;;;;;5084781;28;20703;-71
2022/04/17 04:49:38;;;;;;;318.13;81.10;;;;;;;;;;5077518;28;20757;-70
2022/04/17 04:52:09;;;;;;;319.77;80.20;;;;;;;;;;5074817;28;20521;-71
2022/04/17 04:54:37;;;;;;;318.50;84.70;;;;;;;;;;5073589;28;20873;-70
2022/04/17 04:57:07;;;;;;;300.13;79.20;;;;;;;;;;5082235;28;20448;-71
2022/04/17 04:59:35;;;;;;;327.63;80.07;;;;;;;;;;5094851;28;20460;-71
2022/04/17 05:02:04;;;;;;;325.70;80.40;;;;;;;;;;5094822;28;20482;-70
2022/04/17 05:04:36;;;;;;;313.67;79.67;;;;;;;;;;5093901;28;20454;-70
2022/04/17 05:07:09;;;;;;;306.10;79.40;;;;;;;;;;5094474;28;20435;-72
2022/04/17 05:09:37;;;;;;;323.27;84.47;;;;;;;;;;5093795;28;20460;-71
2022/04/17 05:12:05;;;;;;;330.80;85.67;;;;;;;;;;5094637;28;20532;-70
2022/04/17 05:14:41;;;;;;;325.37;86.20;;;;;;;;;;5087988;28;20476;-71
2022/04/17 05:17:08;;;;;;;324.97;81.23;;;;;;;;;;5073136;28;20452;-71
2022/04/17 05:19:38;;;;;;;329.07;80.80;;;;;;;;;;5073941;28;20525;-70
2022/04/17 05:22:10;;;;;;;335.30;83.83;;;;;;;;;;5087619;28;20458;-70
2022/04/17 05:24:38;;;;;;;330.47;83.97;;;;;;;;;;5094740;28;20541;-70
2022/04/17 05:27:07;;;;;;;344.50;88.67;;;;;;;;;;5079861;28;20461;-70
2022/04/17 05:29:38;;;;;;;320.27;83.47;;;;;;;;;;5078073;28;20517;-70
2022/04/17 05:32:10;;;;;;;326.97;82.20;;;;;;;;;;5077817;28;20444;-70
2022/04/17 05:34:37;;;;;;;344.50;85.00;;;;;;;;;;5083886;28;20479;-70
2022/04/17 05:37:06;;;;;;;329.97;81.70;;;;;;;;;;5098830;28;20520;-70
2022/04/17 05:39:35;;;;;;;294.40;77.90;;;;;;;;;;5097955;28;20462;-70
2022/04/17 05:42:03;;;;;;;297.43;82.90;;;;;;;;;;5095598;28;20459;-71
2022/04/17 05:44:31;;;;;;;327.70;78.97;;;;;;;;;;5078002;28;20452;-70
2022/04/17 05:47:00;;;;;;;311.90;78.20;;;;;;;;;;5078074;28;20456;-70
2022/04/17 05:49:31;;;;;;;321.00;83.00;;;;;;;;;;5076846;28;20808;-71
2022/04/17 05:51:59;;;;;;;322.87;81.37;;;;;;;;;;5086616;28;20460;-70
2022/04/17 05:54:27;;;;;;;331.73;84.23;;;;;;;;;;5097439;28;20506;-70
2022/04/17 05:57:01;;;;;;;316.60;81.80;;;;;;;;;;5096030;28;20537;-70
2022/04/17 05:59:28;;;;;;;321.47;83.80;;;;;;;;;;5098067;28;20466;-71
2022/04/17 06:01:56;;;;;;;328.00;83.87;;;;;;;;;;5097188;28;20773;-72
2022/04/17 06:04:25;;;;;;;325.20;80.20;;;;;;;;;;5096836;28;20455;-71
2022/04/17 06:06:52;;;;;;;348.53;87.10;;;;;;;;;;5095912;28;20554;-72
2022/04/17 06:09:20;;;;;;;336.40;86.30;;;;;;;;;;5096502;28;20484;-71
2022/04/17 06:11:50;;;;;;;335.87;83.47;;;;;;;;;;5063029;28;20881;-71
2022/04/17 06:14:20;;;;;;;344.17;86.30;;;;;;;;;;5055547;28;20473;-71
2022/04/17 06:16:48;;;;;;;318.70;84.30;;;;;;;;;;5055680;28;20465;-71
2022/04/17 06:19:19;;;;;;;342.90;85.93;;;;;;;;;;5055223;28;20456;-71
2022/04/17 06:21:47;;;;;;;339.50;87.33;;;;;;;;;;5056616;28;20501;-71
2022/04/17 06:24:15;;;;;;;334.17;88.63;;;;;;;;;;5056162;28;20456;-71
2022/04/17 06:26:42;;;;;;;299.17;83.27;;;;;;;;;;5056131;28;20489;-72
2022/04/17 06:29:10;;;;;;;337.03;87.90;;;;;;;;;;5055990;28;20446;-71
2022/04/17 06:31:45;;;;;;;340.57;84.43;;;;;;;;;;5072662;28;20468;-71
2022/04/17 06:34:12;;;;;;;330.50;84.97;;;;;;;;;;5070732;28;20449;-70
2022/04/17 06:36:40;;;;;;;336.50;85.83;;;;;;;;;;5055110;28;20702;-70
2022/04/17 06:39:08;;;;;;;331.67;85.50;;;;;;;;;;5055698;28;20523;-71
2022/04/17 06:41:36;;;;;;;348.67;86.30;;;;;;;;;;5067348;28;20696;-71
2022/04/17 06:44:04;;;;;;;339.33;85.67;;;;;;;;;;5071919;28;20492;-71
2022/04/17 06:46:34;;;;;;;343.53;84.87;;;;;;;;;;5075458;28;20456;-72
2022/04/17 06:49:03;;;;;;;347.03;89.57;;;;;;;;;;5075406;28;20535;-72
2022/04/17 06:51:31;;;;;;;350.47;90.70;;;;;;;;;;5076224;28;20464;-72
2022/04/17 06:53:59;;;;;;;348.23;88.23;;;;;;;;;;5076166;28;20868;-71
2022/04/17 06:56:28;;;;;;;345.37;85.63;;;;;;;;;;5075823;28;20810;-71
2022/04/17 06:58:56;;;;;;;345.07;86.83;;;;;;;;;;5075675;28;20890;-71
2022/04/17 07:01:24;;;;;;;350.00;90.00;;;;;;;;;;5075605;28;20509;-71
2022/04/17 07:03:51;;;;;;;338.97;91.03;;;;;;;;;;5075843;28;20444;-71
2022/04/17 07:06:20;;;;;;;354.17;90.83;;;;;;;;;;5075647;28;20525;-71
2022/04/17 07:08:54;;;;;;;350.90;90.30;;;;;;;;;;5076218;28;20486;-72
2022/04/17 07:11:23;;;;;;;352.20;87.23;;;;;;;;;;5075746;28;20546;-71
2022/04/17 07:13:51;;;;;;;350.03;89.53;;;;;;;;;;5075430;28;20492;-71
2022/04/17 07:16:19;;;;;;;342.70;89.70;;;;;;;;;;5075406;28;20488;-71
2022/04/17 07:18:47;;;;;;;374.90;97.03;;;;;;;;;;5074887;28;20571;-71
2022/04/17 07:21:16;;;;;;;351.27;93.87;;;;;;;;;;5075685;28;20726;-71
2022/04/17 07:23:47;;;;;;;359.97;92.10;;;;;;;;;;5075087;28;20460;-72
2022/04/17 07:26:20;;;;;;;363.43;93.17;;;;;;;;;;5071618;28;20476;-72
2022/04/17 07:28:50;;;;;;;354.40;89.27;;;;;;;;;;5055289;28;20861;-73
2022/04/17 07:31:21;;;;;;;350.67;93.93;;;;;;;;;;5056066;28;20449;-71
2022/04/17 07:33:49;;;;;;;344.13;90.80;;;;;;;;;;5054933;28;20457;-71
2022/04/17 07:36:20;;;;;;;363.70;99.43;;;;;;;;;;5054243;28;20919;-71
2022/04/17 07:38:49;;;;;;;358.33;96.80;;;;;;;;;;5056605;28;20526;-71
2022/04/17 07:41:17;;;;;;;353.63;93.23;;;;;;;;;;5055950;28;20477;-71
2022/04/17 07:43:45;;;;;;;369.50;98.97;;;;;;;;;;5054617;28;20454;-71
2022/04/17 07:46:13;;;;;;;364.80;95.43;;;;;;;;;;5054187;28;20492;-71
2022/04/17 07:48:40;;;;;;;369.03;104.77;;;;;;;;;;5054833;28;20488;-71
2022/04/17 07:51:08;;;;;;;372.30;105.17;;;;;;;;;;5054391;28;20861;-71
2022/04/17 07:53:35;;;;;;;365.43;99.13;;;;;;;;;;5052403;28;20462;-71
2022/04/17 07:56:05;;;;;;;370.40;108.70;;;;;;;;;;5053290;28;20570;-71
2022/04/17 07:58:35;;;;;;;370.13;105.63;;;;;;;;;;5052497;28;20471;-70
2022/04/17 08:01:15;;;;;;;372.87;104.13;;;;;;;;;;5069106;28;20453;-72
2022/04/17 08:03:54;;;;;;;363.83;105.00;;;;;;;;;;5073065;28;20448;-71
2022/04/17 08:06:22;;;;;;;372.70;103.27;;;;;;;;;;5073545;28;20866;-71
2022/04/17 08:08:53;;;;;;;373.70;103.23;;;;;;;;;;5072893;28;20448;-70
2022/04/17 08:11:23;;;;;;;370.77;103.80;;;;;;;;;;5072733;28;20467;-71
2022/04/17 08:13:52;;;;;;;374.97;110.00;;;;;;;;;;5073537;28;20449;-71
2022/04/17 08:16:20;;;;;;;381.97;107.37;;;;;;;;;;5072584;28;20491;-71
2022/04/17 08:18:47;;;;;;;375.90;114.03;;;;;;;;;;5073268;28;20502;-71
2022/04/17 08:21:16;;;;;;;381.07;114.37;;;;;;;;;;5071857;28;20751;-71
2022/04/17 08:23:43;;;;;;;372.03;104.27;;;;;;;;;;5073452;28;20543;-70
2022/04/17 08:26:17;;;;;;;380.80;113.53;;;;;;;;;;5073494;28;20804;-70
2022/04/17 08:28:46;;;;;;;386.43;116.33;;;;;;;;;;5073678;28;20751;-69
2022/04/17 08:31:15;;;;;;;382.73;114.47;;;;;;;;;;5074044;28;20838;-70
2022/04/17 08:33:42;;;;;;;378.03;111.80;;;;;;;;;;5074467;28;20502;-71
2022/04/17 08:36:12;;;;;;;388.00;119.27;;;;;;;;;;5073744;28;20587;-71
2022/04/17 08:38:42;;;;;;;379.97;114.13;;;;;;;;;;5057220;28;20559;-71
2022/04/17 08:41:10;;;;;;;378.67;110.57;;;;;;;;;;5053453;28;20453;-71
2022/04/17 08:43:39;;;;;;;388.93;127.60;;;;;;;;;;5053034;28;20685;-71
2022/04/17 08:46:09;;;;;;;389.30;118.60;;;;;;;;;;5054147;28;20449;-71
2022/04/17 08:48:37;;;;;;;384.63;116.17;;;;;;;;;;5053736;28;20449;-71
2022/04/17 08:51:06;;;;;;;391.50;126.90;;;;;;;;;;5054156;28;20547;-71
2022/04/17 08:53:35;;;;;;;383.63;116.87;;;;;;;;;;5053125;28;20445;-72
2022/04/17 08:56:07;;;;;;;389.40;130.83;;;;;;;;;;5051831;28;20512;-71
2022/04/17 08:58:35;;;;;;;388.87;126.27;;;;;;;;;;5052681;28;20462;-71
2022/04/17 09:01:02;;;;;;;395.00;130.93;;;;;;;;;;5053945;28;20463;-71
2022/04/17 09:03:34;;;;;;;385.30;122.50;;;;;;;;;;5057297;28;20455;-71
2022/04/17 09:06:03;;;;;;;391.53;126.53;;;;;;;;;;5070137;28;20823;-71
2022/04/17 09:08:31;;;;;;;389.47;132.13;;;;;;;;;;5076550;28;20456;-71
2022/04/17 09:11:01;;;;;;;390.20;127.03;;;;;;;;;;5076635;28;20456;-71
2022/04/17 09:13:29;;;;;;;387.77;126.00;;;;;;;;;;5075673;28;20560;-71
2022/04/17 09:15:58;;;;;;;387.70;124.00;;;;;;;;;;5083179;28;20490;-71
2022/04/17 09:18:31;;;;;;;392.63;126.17;;;;;;;;;;5077617;28;20523;-69
2022/04/17 09:21:01;;;;;;;390.83;131.30;;;;;;;;;;5077033;28;20733;-70
2022/04/17 09:23:36;;;;;;;392.40;134.47;;;;;;;;;;5076220;28;20973;-71
2022/04/17 09:26:05;;;;;;;385.30;125.87;;;;;;;;;;5076476;28;20455;-71
2022/04/17 09:28:34;;;;;;;393.83;133.07;;;;;;;;;;5076777;28;20708;-71
2022/04/17 09:31:02;;;;;;;377.93;118.73;;;;;;;;;;5076652;28;20461;-71
2022/04/17 09:33:40;;;;;;;377.87;122.47;;;;;;;;;;5076611;28;20519;-71
2022/04/17 09:36:09;;;;;;;381.97;122.43;;;;;;;;;;5076277;28;20488;-71
2022/04/17 09:38:37;;;;;;;386.03;126.13;;;;;;;;;;5075855;28;20459;-70
2022/04/17 09:41:06;;;;;;;379.20;117.23;;;;;;;;;;5076819;28;20460;-70
2022/04/17 09:43:34;;;;;;;394.40;139.40;;;;;;;;;;5076306;28;20975;-71
2022/04/17 09:46:05;;;;;;;394.43;135.60;;;;;;;;;;5076454;28;20860;-71
2022/04/17 09:48:35;;;;;;;388.13;128.97;;;;;;;;;;5076619;28;20449;-71
2022/04/17 09:51:03;;;;;;;394.60;143.07;;;;;;;;;;5078273;28;20563;-71
2022/04/17 09:53:38;;;;;;;388.40;139.13;;;;;;;;;;5096828;28;20460;-70
2022/04/17 09:56:07;;;;;;;401.90;142.70;;;;;;;;;;5095095;28;20555;-71
2022/04/17 09:58:38;;;;;;;385.03;129.03;;;;;;;;;;5075681;28;20492;-71
2022/04/17 10:01:07;;;;;;;394.37;139.80;;;;;;;;;;5076444;28;20464;-71
2022/04/17 10:03:40;;;;;;;398.27;143.83;;;;;;;;;;5091397;28;20440;-72
2022/04/17 10:06:16;;;;;;;387.37;131.03;;;;;;;;;;5096190;28;20538;-72
2022/04/17 10:08:50;;;;;;;398.60;143.57;;;;;;;;;;5083432;28;20452;-71
2022/04/17 10:11:21;;;;;;;394.53;144.87;;;;;;;;;;5067541;28;20943;-70
2022/04/17 10:13:52;;;;;;;397.50;145.80;;;;;;;;;;5092237;28;20847;-71
2022/04/17 10:16:23;;;;;;;395.53;142.37;;;;;;;;;;5084985;28;20506;-71
2022/04/17 10:18:55;;;;;;;396.07;143.80;;;;;;;;;;5075842;28;20449;-72
2022/04/17 10:21:33;;;;;;;399.47;152.50;;;;;;;;;;5075916;28;20555;-73
2022/04/17 10:24:09;;;;;;;399.17;151.13;;;;;;;;;;5076453;28;20798;-71
2022/04/17 10:26:41;;;;;;;402.50;155.20;;;;;;;;;;5075837;28;20872;-72
2022/04/17 10:29:15;;;;;;;400.30;153.60;;;;;;;;;;5076042;28;20448;-72
2022/04/17 10:31:48;;;;;;;404.47;163.83;;;;;;;;;;5079125;28;20820;-72
2022/04/17 10:34:28;;;;;;;398.70;156.63;;;;;;;;;;5083356;28;20869;-71
2022/04/17 10:37:20;;;;;;;397.57;148.60;;;;;;;;;;5076163;28;20930;-72
2022/04/17 10:39:52;;;;;;;392.00;141.43;;;;;;;;;;5062926;28;20872;-71
2022/04/17 10:42:22;;;;;;;387.47;138.63;;;;;;;;;;5075955;28;20872;-71
2022/04/17 10:45:04;;;;;;;400.53;154.97;;;;;;;;;;5075116;28;20452;-72
2022/04/17 10:47:33;;;;;;;401.37;150.30;;;;;;;;;;5075960;28;20444;-71
2022/04/17 10:50:09;;;;;;;403.63;162.00;;;;;;;;;;5074325;28;20539;-71
2022/04/17 10:52:37;;;;;;;397.83;152.80;;;;;;;;;;5073756;28;20452;-71
2022/04/17 10:55:15;;;;;;;396.60;146.97;;;;;;;;;;5074206;28;20453;-71
2022/04/17 10:57:46;;;;;;;393.73;145.47;;;;;;;;;;5073843;28;20575;-71
2022/04/17 11:00:27;;;;;;;401.00;159.53;;;;;;;;;;5072351;28;20453;-72
2022/04/17 11:02:58;;;;;;;397.50;154.17;;;;;;;;;;5071315;28;20839;-72
2022/04/17 11:06:08;;;;;;;396.73;151.63;;;;;;;;;;5075111;28;20548;-71
2022/04/17 11:08:26;;;;;;;401.57;161.30;;;;;;;;;;5074431;28;20467;-71
2022/04/17 11:10:57;;;;;;;405.17;165.97;;;;;;;;;;5074408;28;20457;-71
2022/04/17 11:13:27;;;;;;;398.93;151.00;;;;;;;;;;5074627;28;21113;-71
2022/04/17 11:15:56;;;;;;;409.67;173.00;;;;;;;;;;5074365;28;20576;-71
2022/04/17 11:18:26;;;;;;;408.20;168.43;;;;;;;;;;5075965;28;20481;-72
2022/04/17 11:20:54;;;;;;;397.67;152.57;;;;;;;;;;5074210;28;20464;-71
2022/04/17 11:23:40;;;;;;;405.17;163.27;;;;;;;;;;5073953;28;20449;-72
2022/04/17 11:26:09;;;;;;;402.67;172.07;;;;;;;;;;5075060;28;20457;-71
2022/04/17 11:28:37;;;;;;;407.87;173.17;;;;;;;;;;5091417;28;20455;-71
2022/04/17 11:31:05;;;;;;;406.03;163.80;;;;;;;;;;5076392;28;20936;-72
2022/04/17 11:33:33;;;;;;;408.97;175.73;;;;;;;;;;5091360;28;20458;-71
2022/04/17 11:36:02;;;;;;;409.67;175.70;;;;;;;;;;5077460;28;20483;-72
2022/04/17 11:38:30;;;;;;;405.77;165.53;;;;;;;;;;5073063;28;20457;-71
2022/04/17 11:40:59;;;;;;;405.90;170.93;;;;;;;;;;5074117;28;20453;-71
2022/04/17 11:43:28;;;;;;;400.47;152.47;;;;;;;;;;5073129;28;20452;-71
2022/04/17 11:46:06;;;;;;;403.63;167.33;;;;;;;;;;5074059;28;20460;-72
2022/04/17 11:48:36;;;;;;;410.97;176.33;;;;;;;;;;5073153;28;20551;-71
2022/04/17 11:51:07;;;;;;;409.03;175.53;;;;;;;;;;5074076;28;20492;-71
2022/04/17 11:53:35;;;;;;;395.40;150.30;;;;;;;;;;5073173;28;21114;-71
2022/04/17 11:56:08;;;;;;;404.03;166.00;;;;;;;;;;5072722;28;20563;-73
2022/04/17 11:58:37;;;;;;;404.67;170.10;;;;;;;;;;5072644;28;20453;-72
2022/04/17 12:01:18;;;;;;;405.17;172.73;;;;;;;;;;5076675;28;20467;-72
2022/04/17 12:03:48;;;;;;;401.07;162.77;;;;;;;;;;5069140;28;20445;-72
2022/04/17 12:06:18;;;;;;;404.00;175.10;;;;;;;;;;5062610;28;20833;-71
2022/04/17 12:08:46;;;;;;;408.97;180.90;;;;;;;;;;5073561;28;20444;-71
2022/04/17 12:11:14;;;;;;;410.77;182.90;;;;;;;;;;5078242;28;20457;-71
2022/04/17 12:13:43;;;;;;;402.50;169.20;;;;;;;;;;5073034;28;20548;-71
2022/04/17 12:16:11;;;;;;;409.70;189.47;;;;;;;;;;5073714;28;20500;-71
2022/04/17 12:18:39;;;;;;;410.03;181.63;;;;;;;;;;5079656;28;20457;-71
2022/04/17 12:21:18;;;;;;;406.00;175.63;;;;;;;;;;5077691;28;20461;-71
2022/04/17 12:23:49;;;;;;;415.33;195.27;;;;;;;;;;5071813;28;20460;-72
2022/04/17 12:26:20;;;;;;;411.83;172.30;;;;;;;;;;5072509;28;20924;-72
2022/04/17 12:28:56;;;;;;;404.17;182.40;;;;;;;;;;5074520;28;20456;-72
2022/04/17 12:31:36;;;;;;;399.53;157.00;;;;;;;;;;5073276;28;20462;-71
2022/04/17 12:34:10;;;;;;;409.77;181.30;;;;;;;;;;5086132;28;20548;-72
2022/04/17 12:36:42;;;;;;;392.37;188.70;;;;;;;;;;5091856;28;20486;-71
2022/04/17 12:39:10;;;;;;;409.80;188.10;;;;;;;;;;5075301;28;20488;-71
2022/04/17 12:41:40;;;;;;;418.30;196.93;;;;;;;;;;5073096;28;20449;-71
2022/04/17 12:44:09;;;;;;;418.70;203.27;;;;;;;;;;5071858;28;20460;-72
2022/04/17 12:46:42;;;;;;;409.87;172.40;;;;;;;;;;5073716;28;20453;-71
2022/04/17 12:49:11;;;;;;;419.10;204.73;;;;;;;;;;5073260;28;20543;-71
2022/04/17 12:54:35;;;;;;;410.97;194.80;;;;;;;;;;5073376;28;20575;-71
2022/04/17 12:57:08;;;;;;;422.87;217.87;;;;;;;;;;5072578;28;20638;-72
2022/04/17 12:59:44;;;;;;;410.30;181.27;;;;;;;;;;5072938;28;20488;-71
2022/04/17 13:02:14;;;;;;;414.10;190.77;;;;;;;;;;5072569;28;20513;-71
2022/04/17 13:04:45;;;;;;;419.67;209.67;;;;;;;;;;5084101;28;20893;-72
2022/04/17 13:07:14;;;;;;;415.87;190.23;;;;;;;;;;5093025;28;20455;-71
2022/04/17 13:09:50;;;;;;;417.37;202.17;;;;;;;;;;5092930;28;20478;-72
2022/04/17 13:12:33;;;;;;;418.13;197.13;;;;;;;;;;5091859;28;20459;-71
2022/04/17 13:15:03;;;;;;;418.90;215.97;;;;;;;;;;5089600;28;20491;-73
2022/04/17 13:17:30;;;;;;;406.17;186.93;;;;;;;;;;5093207;28;20486;-73
2022/04/17 13:19:58;;;;;;;413.63;199.00;;;;;;;;;;5092562;28;20512;-71
2022/04/17 13:22:29;;;;;;;407.77;186.93;;;;;;;;;;5080226;28;20464;-72
2022/04/17 13:24:57;;;;;;;410.00;217.07;;;;;;;;;;5071641;28;20460;-71
2022/04/17 13:27:25;;;;;;;411.90;190.43;;;;;;;;;;5071871;28;20526;-72
2022/04/17 13:30:08;;;;;;;397.03;199.60;;;;;;;;;;5083696;28;20535;-72
2022/04/17 13:32:36;;;;;;;414.70;199.70;;;;;;;;;;5090461;28;20508;-71
2022/04/17 13:35:04;;;;;;;414.47;200.37;;;;;;;;;;5092417;28;20494;-71
2022/04/17 13:40:22;;;;;;;421.47;202.87;;;;;;;;;;5092641;28;20512;-74
2022/04/17 13:43:12;;;;;;;416.23;217.00;;;;;;;;;;5068889;28;20539;-74
2022/04/17 13:45:41;;;;;;;407.63;186.27;;;;;;;;;;5073148;28;20472;-73
2022/04/17 13:48:12;;;;;;;409.27;184.40;;;;;;;;;;5075862;28;20864;-73
2022/04/17 13:50:39;;;;;;;410.23;187.03;;;;;;;;;;5074759;28;20766;-72
2022/04/17 13:53:10;;;;;;;415.23;203.13;;;;;;;;;;5076276;28;20937;-72
2022/04/17 13:55:38;;;;;;;417.53;209.97;;;;;;;;;;5076808;28;20461;-73
2022/04/17 13:58:06;;;;;;;423.17;219.10;;;;;;;;;;5078548;28;20564;-72
2022/04/17 14:00:34;;;;;;;417.77;213.37;;;;;;;;;;5084532;28;20464;-73
2022/04/17 14:03:03;;;;;;;417.83;219.87;;;;;;;;;;5087820;28;20444;-70
2022/04/17 14:05:32;;;;;;;409.80;185.37;;;;;;;;;;5077871;28;20480;-72
2022/04/17 14:08:07;;;;;;;407.73;179.70;;;;;;;;;;5076572;28;20451;-72
2022/04/17 14:10:35;;;;;;;410.67;197.33;;;;;;;;;;5086072;28;20476;-72
2022/04/17 14:13:07;;;;;;;415.07;202.60;;;;;;;;;;5084263;28;20918;-72
2022/04/17 14:15:35;;;;;;;415.10;203.47;;;;;;;;;;5080565;28;20516;-72
2022/04/17 14:18:04;;;;;;;406.30;183.10;;;;;;;;;;5095113;28;20494;-72
2022/04/17 14:20:34;;;;;;;408.77;192.87;;;;;;;;;;5081389;28;20507;-72
2022/04/17 14:23:02;;;;;;;418.37;205.07;;;;;;;;;;5076224;28;20460;-72
2022/04/17 14:25:33;;;;;;;407.00;185.87;;;;;;;;;;5093935;28;20443;-73
2022/04/17 14:28:01;;;;;;;413.63;200.23;;;;;;;;;;5092536;28;20816;-71
2022/04/17 14:30:32;;;;;;;406.93;188.13;;;;;;;;;;5077631;28;20871;-73
2022/04/17 14:33:01;;;;;;;404.67;173.53;;;;;;;;;;5075565;28;20463;-73
2022/04/17 14:35:37;;;;;;;405.43;211.60;;;;;;;;;;5076122;28;20514;-73
2022/04/17 14:38:05;;;;;;;413.00;199.13;;;;;;;;;;5077988;28;20553;-72
2022/04/17 14:40:34;;;;;;;414.60;210.63;;;;;;;;;;5073883;28;20461;-73
2022/04/17 14:43:04;;;;;;;413.07;202.37;;;;;;;;;;5074648;28;20432;-72
2022/04/17 14:45:38;;;;;;;410.47;195.27;;;;;;;;;;5073744;28;20464;-72